Moorcroft, Wyoming
Current Conditions -  °F | °C
As of 10:53 AM on Sunday 21 Dec 2014 (Local Time) from KGCC Reporting Station
Overcast Overcast  
Wind Chill: 39°   Ceiling: 8500
Heat Index: 43°   Visibility: 10mi
Dew Point: 27°   Wind: 6mph
Humidity: 53%   Direction: 250°WSW
Pressure: 29.45"   Gusts: NA
Location:  44.26°N, 104.95°W
Report Text: KGCC 211753Z AUTO 25005KT 10SM FEW060 OVC085 06/M03 A2945 RMK AO2 SLP979 T00611028 10061 20006 53001 TSNO
Loading
Personal Weather Stations






























Interactive Weather Map New forecast layout! Learn more

10-Day Weather Forecast

Advertisements
Track Severe Weather on mobile